aviador You're here:

KEWN Decoded Metar

NEW BERN in NC, USA
Report Time2017-07-21 13:54:00
UTC Time2017-07-21 14:49:57
Flight Rules vfr VFR
Wind270° at 05 kt
W.Decomp.*RWY 32: 3.7 kt HW 3.3 kt LCW
RWY 22: 2.6 kt HW 4.2 kt RCW
W.Rank270° ranks 24
Current wind is below 270° avg. (7.0)
Visibility9999 m
Phenomena:N/A
Clouds:N/A
Expected CloudBase > 2,400 ft AGL from Temp-Dew spread
CeilingNone
Temp30°C (ISA +15)
Dew Point24°C (70% RH)
Heat Index35.0°C
QNH1017 hPa
Density Alt1,988 ft
Elevation10 ft
Report Wrong Elevation
Raw Report
METAR KEWN 211354Z 27005KT 10SM CLR 30/24 A3003 RMK AO2 SLP168 T03000244=

Extra information for KEWN:More info

Metar Taf Metar & Taf Last 4 Metars F.Rules Stats Wind Profile Meteogram Temp Stats Airport Information Weather charts Add Link Nearby VenuesMetar ALERT Operation Metar Decoded Social comments

AIRNAV info for KEWN